Time;durP1;ratioP1;P1;durP2;ratioP2;P2;SDS_P1;SDS_P2;PMS_P1;PMS_P2;Temp;Humidity;BMP_temperature;BMP_pressure;BME280_temperature;BME280_humidity;BME280_pressure;Samples;Min_cycle;Max_cycle;Signal;HPM_P1;HPM_P2
2022/04/28 00:00:29;;;;;;;7.63;2.92;;;12.60;69.10;;;;;;5124513;27;45302;-79
2022/04/28 00:02:56;;;;;;;6.03;2.42;;;12.50;68.50;;;;;;5124482;27;45383;-79
2022/04/28 00:05:24;;;;;;;4.60;2.40;;;12.40;70.00;;;;;;5127729;27;46390;-79
2022/04/28 00:07:52;;;;;;;5.78;2.90;;;12.40;69.60;;;;;;5130988;27;45254;-79
2022/04/28 00:10:21;;;;;;;7.22;2.70;;;12.40;69.30;;;;;;5116951;27;46272;-79
2022/04/28 00:12:48;;;;;;;4.30;2.28;;;12.50;69.10;;;;;;5119552;27;45408;-79
2022/04/28 00:15:15;;;;;;;4.93;2.80;;;12.30;69.90;;;;;;5129371;27;46186;-79
2022/04/28 00:17:42;;;;;;;4.65;2.55;;;12.40;69.60;;;;;;5126652;27;45144;-79
2022/04/28 00:20:10;;;;;;;5.13;2.58;;;12.30;69.10;;;;;;5125192;27;45261;-79
2022/04/28 00:22:36;;;;;;;4.72;2.53;;;12.30;68.60;;;;;;5128671;27;45463;-79
2022/04/28 00:25:04;;;;;;;9.38;3.10;;;12.20;69.60;;;;;;5129843;27;47449;-79
2022/04/28 00:27:33;;;;;;;6.38;3.00;;;12.20;70.00;;;;;;5123976;27;45720;-79
2022/04/28 00:29:59;;;;;;;7.10;3.30;;;12.20;69.00;;;;;;5126452;27;45645;-79
2022/04/28 00:32:27;;;;;;;8.82;2.92;;;12.10;68.80;;;;;;5130082;27;45274;-79
2022/04/28 00:34:53;;;;;;;5.80;2.50;;;12.10;70.40;;;;;;5127839;27;47795;-79
2022/04/28 00:37:21;;;;;;;6.88;2.70;;;12.10;70.80;;;;;;5131652;27;45451;-79
2022/04/28 00:39:48;;;;;;;5.38;2.70;;;12.10;69.90;;;;;;5125634;27;45567;-79
2022/04/28 00:42:17;;;;;;;6.00;2.83;;;12.00;69.30;;;;;;5124686;27;45298;-79
2022/04/28 00:44:46;;;;;;;5.80;2.72;;;12.00;70.90;;;;;;5129858;27;47429;-79
2022/04/28 00:47:13;;;;;;;6.80;2.72;;;12.10;71.40;;;;;;5130292;27;45126;-79
2022/04/28 00:52:26;;;;;;;8.10;3.17;;;12.10;71.40;;;;;;5123282;27;45265;-79
2022/04/28 00:54:54;;;;;;;6.85;2.70;;;12.10;71.40;;;;;;5126365;27;47681;-79
2022/04/28 00:57:21;;;;;;;7.13;3.45;;;12.00;71.20;;;;;;5125346;27;45182;-79
2022/04/28 00:59:51;;;;;;;4.97;3.05;;;11.90;69.40;;;;;;5130153;27;45154;-79
2022/04/28 01:02:18;;;;;;;5.20;2.90;;;11.90;69.90;;;;;;5127219;27;45297;-79
2022/04/28 01:04:46;;;;;;;6.30;2.88;;;12.10;70.10;;;;;;5126946;27;46641;-79
2022/04/28 01:07:13;;;;;;;8.73;3.17;;;12.00;69.70;;;;;;5127646;27;45317;-79
2022/04/28 01:09:41;;;;;;;5.55;3.05;;;11.90;69.10;;;;;;5128497;27;45182;-80
2022/04/28 01:12:08;;;;;;;6.15;2.83;;;11.90;69.00;;;;;;5125710;27;45376;-79
2022/04/28 01:14:35;;;;;;;7.60;2.97;;;12.00;69.90;;;;;;5128401;27;45973;-79
2022/04/28 01:17:04;;;;;;;8.05;3.40;;;12.30;68.80;;;;;;5128975;27;45188;-78
2022/04/28 01:19:31;;;;;;;6.80;3.42;;;12.00;68.40;;;;;;5125938;27;45473;-78
2022/04/28 01:21:59;;;;;;;6.65;3.08;;;12.10;67.80;;;;;;5128533;27;45284;-79
2022/04/28 01:24:26;;;;;;;5.10;2.83;;;12.30;69.90;;;;;;5130277;27;46602;-79
2022/04/28 01:26:54;;;;;;;6.95;3.33;;;12.30;70.90;;;;;;5126913;27;45317;-78
2022/04/28 01:29:22;;;;;;;6.25;3.22;;;12.10;69.50;;;;;;5119656;27;45313;-78
2022/04/28 01:31:48;;;;;;;9.98;3.50;;;11.90;70.50;;;;;;5122490;27;45350;-78
2022/04/28 01:34:15;;;;;;;5.55;3.00;;;11.80;70.60;;;;;;5127211;27;47186;-78
2022/04/28 01:36:42;;;;;;;8.18;3.00;;;11.70;70.00;;;;;;5125955;27;45681;-78
2022/04/28 01:39:11;;;;;;;4.70;3.30;;;11.70;70.50;;;;;;5127835;27;45177;-78
2022/04/28 01:41:37;;;;;;;8.07;3.53;;;11.60;71.00;;;;;;5118097;27;45267;-78
2022/04/28 01:44:04;;;;;;;6.22;3.30;;;11.60;73.10;;;;;;5121932;27;46337;-78
2022/04/28 01:46:31;;;;;;;11.07;3.63;;;11.60;72.50;;;;;;5125817;27;45800;-78
2022/04/28 01:48:58;;;;;;;6.70;3.63;;;11.70;72.40;;;;;;5127631;27;45243;-78
2022/04/28 01:56:54;;;;;;;5.95;2.88;;;11.70;70.80;;;;;;5128556;27;45510;-78
2022/04/28 01:59:21;;;;;;;6.72;3.80;;;11.70;71.20;;;;;;5127214;27;45187;-78
2022/04/28 02:01:48;;;;;;;8.60;3.28;;;11.60;71.80;;;;;;5117156;27;45491;-78
2022/04/28 02:04:15;;;;;;;7.78;3.83;;;11.60;71.80;;;;;;5125986;27;46323;-78
2022/04/28 02:06:42;;;;;;;6.13;3.67;;;11.70;71.00;;;;;;5129084;27;45578;-78
2022/04/28 02:09:10;;;;;;;9.57;3.63;;;11.50;71.60;;;;;;5125182;27;45321;-78
2022/04/28 02:11:37;;;;;;;6.07;3.40;;;11.40;72.50;;;;;;5126958;27;45507;-78
2022/04/28 02:14:04;;;;;;;6.72;3.53;;;11.50;72.80;;;;;;5123117;27;46066;-78
2022/04/28 02:16:31;;;;;;;8.05;3.97;;;11.40;72.60;;;;;;5125163;27;45240;-78
2022/04/28 02:18:57;;;;;;;8.02;3.45;;;11.30;73.10;;;;;;5125647;27;45227;-78
2022/04/28 02:21:24;;;;;;;8.80;3.78;;;11.50;71.40;;;;;;5128573;27;45751;-78
2022/04/28 02:23:51;;;;;;;6.97;4.05;;;11.50;73.50;;;;;;5128043;27;46011;-78
2022/04/28 02:26:19;;;;;;;8.50;4.10;;;11.50;73.80;;;;;;5122801;27;45646;-78
2022/04/28 02:28:46;;;;;;;9.00;4.20;;;11.40;73.10;;;;;;5127525;27;45351;-79
2022/04/28 02:31:12;;;;;;;6.78;3.97;;;11.40;71.40;;;;;;5118540;27;45397;-78
2022/04/28 02:33:39;;;;;;;8.18;4.15;;;11.30;74.90;;;;;;5127826;27;45235;-78
2022/04/28 02:36:06;;;;;;;7.70;3.70;;;11.40;72.40;;;;;;5125145;27;45619;-79
2022/04/28 02:38:33;;;;;;;7.80;3.67;;;11.40;72.60;;;;;;5122494;27;45435;-79
2022/04/28 02:41:00;;;;;;;9.60;4.32;;;11.20;74.30;;;;;;5124557;27;45319;-78
2022/04/28 02:43:28;;;;;;;9.93;4.55;;;11.30;74.10;;;;;;5126199;27;47228;-78
2022/04/28 02:45:55;;;;;;;5.50;3.30;;;11.40;72.60;;;;;;5125401;27;45961;-78
2022/04/28 02:48:22;;;;;;;9.93;4.28;;;11.30;73.30;;;;;;5127589;27;45269;-78
2022/04/28 02:50:49;;;;;;;9.40;4.15;;;11.30;73.50;;;;;;5125684;27;45208;-78
2022/04/28 02:53:16;;;;;;;8.88;4.20;;;11.20;73.60;;;;;;5121067;27;46418;-78
2022/04/28 02:55:43;;;;;;;7.72;4.00;;;11.20;75.60;;;;;;5122900;27;45732;-79
2022/04/28 02:58:10;;;;;;;6.78;4.00;;;11.30;74.80;;;;;;5124844;27;45152;-79
2022/04/28 03:00:39;;;;;;;7.72;4.13;;;11.20;76.80;;;;;;5123490;27;45339;-79
2022/04/28 03:03:06;;;;;;;8.13;4.20;;;11.10;74.70;;;;;;5127660;27;46670;-78
2022/04/28 03:10:46;;;;;;;9.68;4.15;;;11.10;75.50;;;;;;5126491;27;45265;-79
2022/04/28 03:11:03;;;;;;;9.95;4.18;;;11.10;74.90;;;;;;5125121;27;45419;-79
2022/04/28 03:13:31;;;;;;;6.25;3.90;;;11.10;75.20;;;;;;5123372;27;45685;-79
2022/04/28 03:16:00;;;;;;;7.43;4.35;;;11.00;75.20;;;;;;5123965;27;45397;-79
2022/04/28 03:18:27;;;;;;;6.55;4.10;;;10.90;76.00;;;;;;5121997;27;45377;-79
2022/04/28 03:20:54;;;;;;;6.95;4.07;;;11.00;75.60;;;;;;5124911;27;45166;-79
2022/04/28 03:23:21;;;;;;;7.88;4.80;;;10.90;76.70;;;;;;5116673;27;45276;-79
2022/04/28 03:25:49;;;;;;;9.80;4.70;;;11.00;77.30;;;;;;5118886;27;46116;-78
2022/04/28 03:28:17;;;;;;;11.13;4.95;;;11.00;76.40;;;;;;5117295;27;45517;-78
2022/04/28 03:30:43;;;;;;;8.38;4.53;;;10.90;76.80;;;;;;5118167;27;46304;-79
2022/04/28 03:33:12;;;;;;;7.95;4.85;;;10.90;77.70;;;;;;5124923;27;46610;-80
2022/04/28 03:35:39;;;;;;;6.28;4.70;;;10.90;77.80;;;;;;5116610;27;45789;-80
2022/04/28 03:38:07;;;;;;;6.93;4.80;;;10.90;77.10;;;;;;5123579;27;45314;-80
2022/04/28 03:40:34;;;;;;;7.30;4.72;;;11.00;76.20;;;;;;5124632;27;45326;-80
2022/04/28 03:43:01;;;;;;;11.20;5.15;;;10.90;76.60;;;;;;5125004;27;46609;-80
2022/04/28 03:45:28;;;;;;;6.47;4.43;;;11.10;77.10;;;;;;5114676;27;46152;-80
2022/04/28 03:47:55;;;;;;;8.30;4.60;;;11.00;77.50;;;;;;5125612;27;45585;-80
2022/04/28 03:50:24;;;;;;;10.90;5.50;;;11.00;77.00;;;;;;5127438;27;45432;-80
2022/04/28 03:52:51;;;;;;;12.75;4.65;;;11.00;77.50;;;;;;5124191;27;47186;-80
2022/04/28 03:55:18;;;;;;;11.98;5.38;;;11.00;76.80;;;;;;5120266;27;45343;-80
2022/04/28 03:57:45;;;;;;;12.52;4.90;;;10.80;77.90;;;;;;5127179;27;45271;-80
2022/04/28 04:00:14;;;;;;;7.80;5.25;;;10.80;79.20;;;;;;5121423;27;45513;-80
2022/04/28 04:02:41;;;;;;;9.80;5.65;;;10.80;77.40;;;;;;5124547;27;48288;-79
2022/04/28 04:05:09;;;;;;;11.43;5.40;;;10.80;79.50;;;;;;5127239;27;46399;-79
2022/04/28 04:07:38;;;;;;;7.03;4.50;;;10.90;77.60;;;;;;5122892;27;45510;-80
2022/04/28 04:10:06;;;;;;;8.90;5.82;;;10.80;78.70;;;;;;5126800;27;46680;-80
2022/04/28 04:12:32;;;;;;;8.20;5.43;;;10.80;78.50;;;;;;5125859;27;48707;-80
2022/04/28 04:14:59;;;;;;;11.60;5.13;;;10.70;78.50;;;;;;5123352;27;45344;-80
2022/04/28 04:17:26;;;;;;;8.65;4.88;;;10.70;79.40;;;;;;5112939;27;45334;-79
2022/04/28 04:19:53;;;;;;;11.05;5.82;;;10.80;79.10;;;;;;5124303;27;45307;-79
2022/04/28 04:22:20;;;;;;;8.40;5.28;;;10.80;79.70;;;;;;5128552;27;46544;-80
2022/04/28 04:24:48;;;;;;;9.73;5.43;;;10.80;78.10;;;;;;5129687;27;45586;-80
2022/04/28 04:27:15;;;;;;;8.43;4.25;;;10.80;78.80;;;;;;5123754;27;45269;-80
2022/04/28 04:29:42;;;;;;;8.13;4.78;;;10.70;80.00;;;;;;5127333;27;45468;-80
2022/04/28 04:32:17;;;;;;;12.75;6.80;;;10.70;79.10;;;;;;5120328;27;46527;-80
2022/04/28 04:34:44;;;;;;;10.30;5.38;;;10.70;79.20;;;;;;5120569;27;45682;-79
2022/04/28 04:37:11;;;;;;;10.60;5.45;;;10.70;80.10;;;;;;5125744;27;45398;-80
2022/04/28 04:39:38;;;;;;;10.10;4.88;;;10.70;79.80;;;;;;5121753;27;45514;-80
2022/04/28 04:42:07;;;;;;;10.45;5.57;;;10.80;79.80;;;;;;5125644;27;47527;-79
2022/04/28 04:44:34;;;;;;;9.75;5.75;;;10.80;78.80;;;;;;5129394;27;45371;-79
2022/04/28 04:47:01;;;;;;;9.73;5.78;;;10.70;80.50;;;;;;5120618;27;45296;-80
2022/04/28 04:49:28;;;;;;;10.32;5.53;;;10.70;78.40;;;;;;5126267;27;45527;-80
2022/04/28 04:51:55;;;;;;;12.00;5.95;;;10.70;79.70;;;;;;5124471;27;47007;-80
2022/04/28 04:54:22;;;;;;;8.63;5.53;;;10.80;80.30;;;;;;5125269;27;45342;-80
2022/04/28 04:56:49;;;;;;;10.63;5.35;;;10.70;80.90;;;;;;5128318;27;45997;-79
2022/04/28 04:59:17;;;;;;;8.75;6.07;;;10.70;79.50;;;;;;5127488;27;45329;-80
2022/04/28 05:01:44;;;;;;;9.90;5.68;;;10.50;81.10;;;;;;5126879;27;46001;-80
2022/04/28 05:04:11;;;;;;;11.87;6.07;;;10.60;80.90;;;;;;5123304;27;45391;-80
2022/04/28 05:06:37;;;;;;;12.52;5.95;;;10.70;81.50;;;;;;5122186;27;46258;-80
2022/04/28 05:09:04;;;;;;;9.82;6.07;;;10.80;80.50;;;;;;5126561;27;45475;-80
2022/04/28 05:11:31;;;;;;;12.25;6.63;;;10.70;81.90;;;;;;5125776;27;45241;-79
2022/04/28 05:13:58;;;;;;;13.82;5.85;;;10.80;80.10;;;;;;5134586;27;45254;-80
2022/04/28 05:16:26;;;;;;;10.18;5.72;;;10.80;80.80;;;;;;5128299;27;45730;-80
2022/04/28 05:18:53;;;;;;;11.15;5.85;;;10.80;83.00;;;;;;5121244;27;45217;-80
2022/04/28 05:21:20;;;;;;;10.50;6.28;;;10.90;81.10;;;;;;5122069;27;46202;-81
2022/04/28 05:23:47;;;;;;;11.13;5.68;;;10.90;81.70;;;;;;5121446;27;45631;-81
2022/04/28 05:26:14;;;;;;;12.02;6.05;;;10.80;81.70;;;;;;5129758;27;45185;-81
2022/04/28 05:28:41;;;;;;;9.23;5.10;;;10.90;80.80;;;;;;5124303;27;45139;-80
2022/04/28 05:31:08;;;;;;;10.55;6.20;;;11.00;82.50;;;;;;5127755;27;46326;-81
2022/04/28 05:33:37;;;;;;;21.58;6.28;;;11.00;82.20;;;;;;5123365;27;45155;-80
2022/04/28 05:36:09;;;;;;;9.98;5.63;;;11.00;80.30;;;;;;5128883;27;45222;-81
2022/04/28 05:38:36;;;;;;;10.48;6.00;;;11.00;81.60;;;;;;5114178;27;45636;-80
2022/04/28 05:41:03;;;;;;;10.77;6.03;;;11.20;80.10;;;;;;5115304;27;47886;-81
2022/04/28 05:46:15;;;;;;;7.22;4.53;;;11.50;80.50;;;;;;5126605;27;45333;-80
2022/04/28 05:48:43;;;;;;;9.57;5.22;;;12.00;76.50;;;;;;5122955;27;45338;-81
2022/04/28 05:51:11;;;;;;;12.52;6.65;;;12.00;74.80;;;;;;5121707;27;48135;-80
2022/04/28 05:53:38;;;;;;;17.70;7.35;;;11.50;77.40;;;;;;5125419;27;45397;-79
2022/04/28 05:56:05;;;;;;;9.63;5.82;;;11.20;79.40;;;;;;5128281;27;45279;-79
2022/04/28 05:58:32;;;;;;;11.75;6.50;;;11.10;79.60;;;;;;5123100;27;45285;-79
2022/04/28 06:00:59;;;;;;;7.63;5.70;;;11.10;80.30;;;;;;5125346;27;47403;-80
2022/04/28 06:03:26;;;;;;;7.82;5.22;;;11.30;82.80;;;;;;5121515;27;45569;-81
2022/04/28 06:05:54;;;;;;;10.05;6.18;;;11.80;79.20;;;;;;5117960;27;45302;-80
2022/04/28 06:08:21;;;;;;;8.10;5.82;;;11.50;80.10;;;;;;5112449;27;45306;-79
2022/04/28 06:10:48;;;;;;;9.05;5.32;;;11.40;82.50;;;;;;5115469;27;47985;-79
2022/04/28 06:13:15;;;;;;;11.55;6.90;;;11.50;87.40;;;;;;5123731;27;45277;-79
2022/04/28 06:15:42;;;;;;;12.20;6.35;;;11.50;79.20;;;;;;5123006;27;45250;-79
2022/04/28 06:18:09;;;;;;;10.80;6.15;;;11.50;81.40;;;;;;5122765;27;45360;-80
2022/04/28 06:20:35;;;;;;;12.50;6.55;;;11.40;80.40;;;;;;5124695;27;46305;-80
2022/04/28 06:23:03;;;;;;;13.90;6.93;;;11.30;82.80;;;;;;5127319;27;45276;-80
2022/04/28 06:25:30;;;;;;;8.75;5.45;;;11.30;82.00;;;;;;5127407;27;45424;-79
2022/04/28 06:27:57;;;;;;;10.30;6.25;;;11.30;82.60;;;;;;5126191;27;45381;-80
2022/04/28 06:30:24;;;;;;;9.90;6.07;;;11.40;83.40;;;;;;5123359;27;48079;-80
2022/04/28 06:32:51;;;;;;;10.82;6.30;;;11.40;81.60;;;;;;5128299;27;45321;-80
2022/04/28 06:35:18;;;;;;;11.52;6.78;;;11.30;82.00;;;;;;5125924;27;45603;-79
2022/04/28 06:37:45;;;;;;;10.52;6.32;;;11.40;81.90;;;;;;5129060;27;45317;-79
2022/04/28 06:40:13;;;;;;;12.63;6.80;;;11.30;82.10;;;;;;5127847;27;45292;-79
2022/04/28 06:42:43;;;;;;;14.27;6.45;;;11.40;82.80;;;;;;5124878;27;45227;-79
2022/04/28 06:45:11;;;;;;;13.60;6.80;;;11.40;81.50;;;;;;5127510;27;45284;-80
2022/04/28 06:47:38;;;;;;;8.57;6.20;;;11.40;81.10;;;;;;5126210;27;45594;-79
2022/04/28 06:50:06;;;;;;;13.02;6.40;;;11.50;82.60;;;;;;5122667;27;48385;-79
2022/04/28 06:52:35;;;;;;;11.13;6.22;;;11.60;82.20;;;;;;5115097;27;45424;-79
2022/04/28 06:55:03;;;;;;;11.27;6.20;;;11.80;81.50;;;;;;5124404;27;45521;-80
2022/04/28 06:57:31;;;;;;;11.75;6.43;;;11.70;83.20;;;;;;5116836;27;45594;-80
2022/04/28 06:59:58;;;;;;;10.63;6.28;;;11.70;81.70;;;;;;5125643;27;45638;-79
2022/04/28 07:02:25;;;;;;;9.20;5.47;;;11.70;82.60;;;;;;5121879;27;45652;-87
2022/04/28 07:04:52;;;;;;;13.35;6.75;;;11.80;82.80;;;;;;5127027;27;45280;-79
2022/04/28 07:07:20;;;;;;;13.90;7.68;;;11.80;81.70;;;;;;5116341;27;45591;-83
2022/04/28 07:09:46;;;;;;;29.50;5.57;;;11.70;81.50;;;;;;5123004;27;46201;-81
2022/04/28 07:12:13;;;;;;;9.27;5.75;;;11.80;83.60;;;;;;5126654;27;45325;-81
2022/04/28 07:14:42;;;;;;;12.98;6.80;;;11.80;83.60;;;;;;5126529;27;45331;-81
2022/04/28 07:17:09;;;;;;;13.65;7.80;;;12.00;82.50;;;;;;5126707;27;45212;-82
2022/04/28 07:19:36;;;;;;;12.70;7.57;;;12.10;83.30;;;;;;5117621;27;46211;-82
2022/04/28 07:22:05;;;;;;;8.23;5.28;;;12.00;84.00;;;;;;5119974;27;45211;-82
2022/04/28 07:24:31;;;;;;;12.48;7.88;;;12.00;82.90;;;;;;5126972;27;45261;-81
2022/04/28 07:26:59;;;;;;;7.30;4.20;;;12.00;81.40;;;;;;5122669;27;45189;-81
2022/04/28 07:29:26;;;;;;;10.70;5.18;;;12.30;85.60;;;;;;5122587;27;45506;-82
2022/04/28 07:31:54;;;;;;;9.13;5.55;;;12.90;83.80;;;;;;5123605;27;45241;-81
2022/04/28 07:34:20;;;;;;;10.98;6.00;;;13.00;84.50;;;;;;5117449;27;45678;-81
2022/04/28 07:36:47;;;;;;;12.70;5.95;;;12.90;84.80;;;;;;5132320;27;45463;-82
2022/04/28 07:39:14;;;;;;;12.75;6.70;;;13.10;82.80;;;;;;5124353;27;47946;-83
2022/04/28 07:41:41;;;;;;;14.35;6.43;;;12.80;81.70;;;;;;5122946;27;45352;-82
2022/04/28 07:44:08;;;;;;;9.57;6.43;;;13.10;83.60;;;;;;5125334;27;45271;-82
2022/04/28 07:46:35;;;;;;;12.65;7.07;;;13.20;83.40;;;;;;5129163;27;45404;-82
2022/04/28 07:49:03;;;;;;;16.13;7.60;;;13.00;82.10;;;;;;5128733;27;46674;-81
2022/04/28 07:51:36;;;;;;;13.93;7.07;;;13.10;81.20;;;;;;5132538;27;45216;-82
2022/04/28 07:54:04;;;;;;;11.32;7.10;;;13.40;82.70;;;;;;5127084;27;45206;-81
2022/04/28 07:56:31;;;;;;;13.65;7.30;;;13.20;81.20;;;;;;5117055;27;45367;-81
2022/04/28 07:58:58;;;;;;;12.68;6.60;;;13.10;82.20;;;;;;5128670;27;45311;-81
2022/04/28 08:01:25;;;;;;;12.82;7.13;;;13.30;81.60;;;;;;5119157;27;45627;-81
2022/04/28 08:03:52;;;;;;;11.88;7.00;;;13.40;81.20;;;;;;5126563;27;45352;-80
2022/04/28 08:06:20;;;;;;;10.55;6.57;;;13.40;79.70;;;;;;5130193;27;45231;-81
2022/04/28 08:08:47;;;;;;;13.10;7.00;;;13.50;80.60;;;;;;5126757;27;45311;-80
2022/04/28 08:11:14;;;;;;;12.07;7.05;;;13.30;80.30;;;;;;5128481;27;45290;-80
2022/04/28 08:13:41;;;;;;;15.70;7.32;;;13.60;80.80;;;;;;5127196;27;45328;-82
2022/04/28 08:16:08;;;;;;;16.10;8.27;;;13.70;80.40;;;;;;5129187;27;45408;-81
2022/04/28 08:18:36;;;;;;;14.05;9.20;;;13.00;77.70;;;;;;5123807;27;48170;-81
2022/04/28 08:21:04;;;;;;;16.90;9.38;;;12.70;79.10;;;;;;5127762;27;45273;-81
2022/04/28 08:23:33;;;;;;;15.30;9.13;;;12.60;81.20;;;;;;5130710;27;45170;-83
2022/04/28 08:25:59;;;;;;;15.73;7.50;;;12.70;79.50;;;;;;5123459;27;45176;-81
2022/04/28 08:28:26;;;;;;;19.17;8.15;;;12.80;81.00;;;;;;5122566;27;46635;-81
2022/04/28 08:30:53;;;;;;;12.85;7.30;;;12.90;80.30;;;;;;5129543;27;45503;-81
2022/04/28 08:33:20;;;;;;;15.68;7.50;;;13.00;78.40;;;;;;5109460;27;45622;-81
2022/04/28 08:35:47;;;;;;;11.80;7.68;;;13.00;80.00;;;;;;5123423;27;45202;-84
2022/04/28 08:38:14;;;;;;;9.63;5.22;;;13.10;81.10;;;;;;5130190;27;45953;-81
2022/04/28 08:40:47;;;;;;;12.35;7.75;;;13.90;79.50;;;;;;5127428;27;45737;-83
2022/04/28 08:43:16;;;;;;;12.50;7.53;;;13.90;74.90;;;;;;5129561;27;45116;-82
2022/04/28 08:46:50;;;;;;;18.23;8.02;;;13.60;75.80;;;;;;5122755;27;45240;-82
2022/04/28 08:48:36;;;;;;;11.82;6.80;;;13.30;76.20;;;;;;5124350;27;46357;-84
2022/04/28 08:51:04;;;;;;;15.45;8.48;;;13.50;79.20;;;;;;5119451;27;45223;-82
2022/04/28 08:53:31;;;;;;;13.43;8.20;;;13.30;75.80;;;;;;5124395;27;45285;-81
2022/04/28 08:55:59;;;;;;;12.23;7.43;;;13.20;76.80;;;;;;5119516;27;45140;-81
2022/04/28 08:58:26;;;;;;;15.40;9.05;;;13.30;77.70;;;;;;5124067;27;47939;-82
2022/04/28 09:00:53;;;;;;;15.00;7.38;;;13.30;75.20;;;;;;5127133;27;45896;-82
2022/04/28 09:03:20;;;;;;;13.63;7.68;;;13.20;75.10;;;;;;5120833;27;45367;-82
2022/04/28 09:05:49;;;;;;;13.35;6.38;;;13.50;75.40;;;;;;5127474;27;45327;-82
2022/04/28 09:08:18;;;;;;;13.60;7.50;;;13.50;74.50;;;;;;5127056;27;47710;-83
2022/04/28 09:10:45;;;;;;;13.77;8.45;;;13.60;76.60;;;;;;5124513;27;45584;-82
2022/04/28 09:15:57;;;;;;;13.45;7.35;;;13.80;79.60;;;;;;5123433;27;45459;-82
2022/04/28 09:18:25;;;;;;;13.57;8.27;;;14.10;75.30;;;;;;5129373;27;45236;-82
2022/04/28 09:20:52;;;;;;;13.68;7.22;;;14.00;75.20;;;;;;5126369;27;45541;-81
2022/04/28 09:23:20;;;;;;;10.13;6.68;;;13.90;75.00;;;;;;5128311;27;45222;-81
2022/04/28 09:25:47;;;;;;;14.43;7.70;;;13.90;72.40;;;;;;5129619;27;45382;-81
2022/04/28 09:28:15;;;;;;;11.63;7.32;;;13.90;71.20;;;;;;5125172;27;45370;-81
2022/04/28 09:30:43;;;;;;;11.38;7.05;;;14.00;71.20;;;;;;5125286;27;45202;-81
2022/04/28 09:33:11;;;;;;;13.20;7.47;;;14.10;72.40;;;;;;5126282;27;45391;-81
2022/04/28 09:35:46;;;;;;;14.93;7.55;;;14.20;73.20;;;;;;5128494;27;45360;-82
2022/04/28 09:38:13;;;;;;;14.52;7.15;;;14.20;73.20;;;;;;5123873;27;46181;-81
2022/04/28 09:43:29;;;;;;;15.68;8.07;;;14.20;72.50;;;;;;5120668;27;45288;-81
2022/04/28 09:45:57;;;;;;;13.50;7.47;;;14.20;73.20;;;;;;5127039;27;45273;-81
2022/04/28 09:48:28;;;;;;;13.15;7.32;;;14.20;71.00;;;;;;5123969;27;46604;-81
2022/04/28 09:51:03;;;;;;;12.35;6.68;;;14.10;71.90;;;;;;5129884;27;45280;-81
2022/04/28 09:53:34;;;;;;;13.07;7.50;;;14.10;68.90;;;;;;5126331;27;45408;-81
2022/04/28 09:56:03;;;;;;;10.43;5.97;;;14.10;71.50;;;;;;5123036;27;45439;-81
2022/04/28 09:58:31;;;;;;;13.65;6.63;;;14.20;70.30;;;;;;5125676;27;48071;-81
2022/04/28 10:01:00;;;;;;;12.30;6.50;;;14.30;72.90;;;;;;5132389;27;45315;-82
2022/04/28 10:03:29;;;;;;;11.88;6.35;;;14.20;70.10;;;;;;5118565;27;45439;-81
2022/04/28 10:05:57;;;;;;;17.40;7.03;;;14.30;71.10;;;;;;5127128;27;45213;-81
2022/04/28 10:08:25;;;;;;;11.85;7.05;;;14.40;71.20;;;;;;5125146;27;47139;-81
2022/04/28 10:10:56;;;;;;;15.07;7.65;;;14.40;69.80;;;;;;5128390;27;45419;-81
2022/04/28 10:13:23;;;;;;;13.13;7.15;;;14.50;70.70;;;;;;5110653;27;46945;-81
2022/04/28 10:15:55;;;;;;;15.93;7.13;;;14.60;69.90;;;;;;5118682;27;45348;-81
2022/04/28 10:18:25;;;;;;;11.70;7.13;;;14.50;68.90;;;;;;5116444;27;45357;-82
2022/04/28 10:20:59;;;;;;;18.95;7.65;;;14.50;70.00;;;;;;5124602;27;45346;-82
2022/04/28 10:34:34;;;;;;;11.63;6.80;;;14.60;65.20;;;;;;5121583;27;45668;-80
2022/04/28 10:37:05;;;;;;;14.98;8.32;;;14.80;70.30;;;;;;5115284;27;45226;-87
2022/04/28 10:39:41;;;;;;;15.57;6.78;;;14.90;73.20;;;;;;5115529;27;47427;-87
2022/04/28 10:42:16;;;;;;;15.98;7.40;;;14.90;66.50;;;;;;5117355;27;46267;-87
2022/04/28 10:44:54;;;;;;;16.02;8.05;;;14.80;67.30;;;;;;5124277;27;45243;-87
2022/04/28 10:47:34;;;;;;;12.55;7.53;;;14.60;64.90;;;;;;5126967;27;45613;-87
2022/04/28 10:50:01;;;;;;;11.07;6.90;;;14.70;74.20;;;;;;5117201;27;46774;-87
2022/04/28 10:52:29;;;;;;;16.10;7.07;;;15.10;63.60;;;;;;5119975;27;45329;-88
2022/04/28 10:55:00;;;;;;;16.27;7.88;;;14.90;66.50;;;;;;5121995;27;45314;-87
2022/04/28 10:57:32;;;;;;;15.10;7.15;;;14.70;65.70;;;;;;5116515;27;45310;-88
2022/04/28 11:00:01;;;;;;;14.23;7.38;;;14.90;67.10;;;;;;5122587;27;48256;-87
2022/04/28 11:02:43;;;;;;;17.70;8.68;;;15.00;66.40;;;;;;5121019;27;45259;-88
2022/04/28 11:05:31;;;;;;;12.02;7.22;;;14.90;64.30;;;;;;5117401;27;45818;-87
2022/04/28 11:08:01;;;;;;;16.50;7.13;;;14.90;65.50;;;;;;5113832;27;45388;-88
2022/04/28 11:10:28;;;;;;;10.65;7.05;;;14.80;63.60;;;;;;5122784;27;48731;-87
2022/04/28 11:12:55;;;;;;;15.23;8.05;;;15.40;62.40;;;;;;5121039;27;45302;-87
2022/04/28 11:15:25;;;;;;;10.32;6.53;;;14.90;62.60;;;;;;5121269;27;45410;-88
2022/04/28 11:17:53;;;;;;;14.30;6.15;;;14.90;64.00;;;;;;5122722;27;45532;-88
2022/04/28 11:20:21;;;;;;;10.68;6.50;;;14.90;64.00;;;;;;5121258;27;47821;-87
2022/04/28 11:22:49;;;;;;;15.43;7.90;;;14.90;66.40;;;;;;5122038;27;45261;-87
2022/04/28 11:25:18;;;;;;;13.80;7.13;;;15.00;64.20;;;;;;5137600;27;45411;-87
2022/04/28 11:27:47;;;;;;;12.30;6.53;;;14.90;61.00;;;;;;5119921;27;45309;-88
2022/04/28 11:30:16;;;;;;;11.13;6.05;;;15.00;61.70;;;;;;5122104;27;46700;-87
2022/04/28 11:32:51;;;;;;;11.52;6.43;;;15.10;64.20;;;;;;5124357;27;45794;-87
2022/04/28 11:35:20;;;;;;;8.32;6.07;;;15.00;66.70;;;;;;5125395;27;45217;-87
2022/04/28 11:37:50;;;;;;;12.05;6.50;;;15.00;62.60;;;;;;5119869;27;45455;-87
2022/04/28 11:40:17;;;;;;;9.43;6.50;;;15.10;61.00;;;;;;5124978;27;46774;-87
2022/04/28 11:42:45;;;;;;;13.35;7.07;;;15.00;64.50;;;;;;5120790;27;45802;-87
2022/04/28 11:45:13;;;;;;;15.48;7.63;;;15.10;59.60;;;;;;5121571;27;45509;-87
2022/04/28 11:47:45;;;;;;;12.95;7.45;;;15.10;62.30;;;;;;5117117;27;45457;-87
2022/04/28 11:50:21;;;;;;;8.45;5.85;;;15.20;61.50;;;;;;5119476;27;47491;-87
2022/04/28 11:52:59;;;;;;;10.10;5.68;;;15.40;59.90;;;;;;5125870;27;45472;-87
2022/04/28 11:55:27;;;;;;;8.05;4.00;;;15.70;63.40;;;;;;5119042;27;45253;-86
2022/04/28 11:57:54;;;;;;;8.35;4.22;;;15.70;59.30;;;;;;5119310;27;45368;-86
2022/04/28 12:00:24;;;;;;;11.57;6.43;;;15.40;60.40;;;;;;5117703;27;45863;-86
2022/04/28 12:02:52;;;;;;;9.43;6.40;;;15.30;60.30;;;;;;5121293;27;45152;-86
2022/04/28 12:05:22;;;;;;;12.60;6.45;;;15.40;64.90;;;;;;5124952;27;45369;-87
2022/04/28 12:07:54;;;;;;;10.75;5.53;;;15.30;59.90;;;;;;5118204;27;45271;-86
2022/04/28 12:15:56;;;;;;;9.55;6.38;;;15.10;52.70;;;;;;5126738;27;45452;-87
2022/04/28 12:21:21;;;;;;;14.73;6.40;;;15.30;57.10;;;;;;5126778;27;45329;-87
2022/04/28 12:23:50;;;;;;;10.48;6.88;;;15.40;58.20;;;;;;5123214;27;45718;-87
2022/04/28 12:26:19;;;;;;;9.02;5.43;;;15.40;57.60;;;;;;5126000;27;45181;-87
2022/04/28 12:28:47;;;;;;;9.20;4.95;;;15.30;57.10;;;;;;5125814;27;45377;-87
2022/04/28 12:31:15;;;;;;;12.30;6.53;;;15.50;58.50;;;;;;5126628;27;46486;-87
2022/04/28 12:33:46;;;;;;;11.23;5.43;;;15.40;57.60;;;;;;5129344;27;45546;-87
2022/04/28 12:36:14;;;;;;;8.85;5.85;;;15.80;60.90;;;;;;5129665;27;45353;-89
2022/04/28 12:38:46;;;;;;;7.47;4.70;;;16.10;59.60;;;;;;5123972;27;45804;-87
2022/04/28 12:41:17;;;;;;;10.20;6.22;;;16.20;59.90;;;;;;5123375;27;45783;-87
2022/04/28 12:43:48;;;;;;;9.65;5.55;;;16.30;57.20;;;;;;5127714;27;45772;-87
2022/04/28 12:46:19;;;;;;;12.25;6.45;;;16.30;58.30;;;;;;5122878;27;45309;-88
2022/04/28 12:48:53;;;;;;;12.88;6.65;;;16.20;56.10;;;;;;5126755;27;45242;-87
2022/04/28 12:51:21;;;;;;;9.60;6.13;;;16.00;57.40;;;;;;5126459;27;47427;-87
2022/04/28 12:53:51;;;;;;;11.15;6.30;;;16.10;57.20;;;;;;5129414;27;45289;-86
2022/04/28 12:56:27;;;;;;;10.10;6.03;;;16.20;57.70;;;;;;5130813;27;45127;-87
2022/04/28 12:58:57;;;;;;;8.60;5.50;;;16.10;57.50;;;;;;5120478;27;45644;-87
2022/04/28 13:01:24;;;;;;;11.75;6.15;;;16.00;58.10;;;;;;5129731;27;48442;-87
2022/04/28 13:03:56;;;;;;;12.63;6.18;;;16.10;58.20;;;;;;5128609;27;45772;-87
2022/04/28 13:06:25;;;;;;;10.27;6.18;;;16.30;62.20;;;;;;5121611;27;45282;-87
2022/04/28 13:08:54;;;;;;;12.45;5.63;;;16.40;55.90;;;;;;5128591;27;45139;-88
2022/04/28 13:11:26;;;;;;;6.75;5.10;;;16.20;56.70;;;;;;5126530;27;45735;-87
2022/04/28 13:13:54;;;;;;;10.73;5.28;;;16.20;55.60;;;;;;5134920;27;45146;-87
2022/04/28 13:16:21;;;;;;;13.15;6.18;;;16.30;56.50;;;;;;5122891;27;45325;-87
2022/04/28 13:18:49;;;;;;;13.25;7.32;;;16.40;56.70;;;;;;5121645;27;45349;-88
2022/04/28 13:21:16;;;;;;;10.90;5.53;;;16.40;55.90;;;;;;5128021;27;46498;-87
2022/04/28 13:23:44;;;;;;;8.30;5.22;;;16.20;54.90;;;;;;5127560;27;46299;-87